createdAt,value
2023-03-14T00:00:16.204Z,94195.66
2023-03-14T00:01:21.293Z,94191.69
2023-03-14T00:02:24.280Z,94197.91
2023-03-14T00:03:29.347Z,94200.63
2023-03-14T00:04:32.332Z,94197.91
2023-03-14T00:05:35.199Z,94192.44
2023-03-14T00:06:38.220Z,94190.44
2023-03-14T00:07:40.926Z,94199.88
2023-03-14T00:08:45.323Z,94204.13
2023-03-14T00:09:47.172Z,94204.91
2023-03-14T00:10:50.281Z,94207.34
2023-03-14T00:11:52.132Z,94207.34
2023-03-14T00:12:55.322Z,94208.84
2023-03-14T00:13:57.193Z,94211.28
2023-03-14T00:15:01.160Z,94215.25
2023-03-14T00:16:04.904Z,94216.75
2023-03-14T00:17:07.738Z,94217.22
2023-03-14T00:18:09.594Z,94216.00
2023-03-14T00:19:14.179Z,94232.88
2023-03-14T00:20:16.059Z,94224.66
2023-03-14T00:21:19.334Z,94223.16
2023-03-14T00:22:21.959Z,94224.66
2023-03-14T00:23:24.948Z,94225.88
2023-03-14T00:24:26.729Z,94213.44
2023-03-14T00:25:29.586Z,94208.72
2023-03-14T00:26:31.406Z,94199.75
2023-03-14T00:27:34.647Z,94190.31
2023-03-14T00:28:37.274Z,94190.31
2023-03-14T00:29:40.184Z,94186.09
2023-03-14T00:30:42.419Z,94184.84
2023-03-14T00:31:45.842Z,94183.34
2023-03-14T00:32:47.848Z,94182.56
2023-03-14T00:33:50.872Z,94188.81
2023-03-14T00:34:54.124Z,94181.81
2023-03-14T00:35:57.985Z,94185.78
2023-03-14T00:37:00.780Z,94183.06
2023-03-14T00:38:02.635Z,94183.81
2023-03-14T00:39:05.545Z,94183.50
2023-03-14T00:40:09.196Z,94191.72
2023-03-14T00:41:14.556Z,94195.19
2023-03-14T00:42:16.958Z,94196.44
2023-03-14T00:43:20.245Z,94193.69
2023-03-14T00:44:23.723Z,94195.69
2023-03-14T00:45:26.672Z,94203.09
2023-03-14T00:46:28.731Z,94203.09
2023-03-14T00:47:31.578Z,94194.91
2023-03-14T00:48:35.412Z,94199.16
2023-03-14T00:49:37.330Z,94198.88
2023-03-14T00:50:42.088Z,94194.16
2023-03-14T00:51:43.881Z,94205.84
2023-03-14T00:52:49.778Z,94205.09
2023-03-14T00:53:51.735Z,94223.47
2023-03-14T00:54:54.687Z,94217.25
2023-03-14T00:55:56.563Z,94211.00
2023-03-14T00:56:59.529Z,94208.28
2023-03-14T00:58:01.441Z,94219.22
2023-03-14T00:59:04.697Z,94223.94
2023-03-14T01:00:11.791Z,94224.69
2023-03-14T01:01:16.500Z,94227.44
2023-03-14T01:02:18.589Z,94228.19
2023-03-14T01:03:21.480Z,94228.19
2023-03-14T01:04:25.118Z,94221.19
2023-03-14T01:05:28.162Z,94226.66
2023-03-14T01:06:31.599Z,94229.41
2023-03-14T01:07:34.449Z,94226.66
2023-03-14T01:08:36.319Z,94228.66
2023-03-14T01:09:39.190Z,94235.34
2023-03-14T01:10:42.314Z,94234.56
2023-03-14T01:11:47.440Z,94233.81
2023-03-14T01:12:49.693Z,94237.78
2023-03-14T01:13:53.175Z,94236.56
2023-03-14T01:14:55.027Z,94239.28
2023-03-14T01:16:03.866Z,94237.78
2023-03-14T01:17:06.901Z,94244.00
2023-03-14T01:18:08.747Z,94244.00
2023-03-14T01:19:11.592Z,94243.25
2023-03-14T01:20:15.842Z,94252.22
2023-03-14T01:21:21.764Z,94245.22
2023-03-14T01:22:25.070Z,94246.44
2023-03-14T01:23:27.983Z,94250.69
2023-03-14T01:24:32.047Z,94248.44
2023-03-14T01:25:33.998Z,94251.16
2023-03-14T01:26:37.609Z,94256.63
2023-03-14T01:27:42.026Z,94265.59
2023-03-14T01:28:45.303Z,94255.09
2023-03-14T01:29:48.440Z,94261.34
2023-03-14T01:30:52.263Z,94260.56
2023-03-14T01:31:54.305Z,94254.81
2023-03-14T01:32:57.567Z,94261.50
2023-03-14T01:33:59.612Z,94260.28
2023-03-14T01:35:02.729Z,94253.28
2023-03-14T01:36:05.932Z,94266.22
2023-03-14T01:37:09.465Z,94263.00
2023-03-14T01:38:14.491Z,94262.72
2023-03-14T01:39:17.304Z,94262.72
2023-03-14T01:40:19.402Z,94266.38
2023-03-14T01:41:26.022Z,94258.34
2023-03-14T01:42:29.934Z,94270.47
2023-03-14T01:43:33.051Z,94275.94
2023-03-14T01:44:49.287Z,94270.66
2023-03-14T01:46:21.075Z,94267.13
2023-03-14T01:47:24.815Z,94268.34
2023-03-14T01:48:30.721Z,94272.31
2023-03-14T01:49:37.201Z,94266.06
2023-03-14T01:50:46.972Z,94262.59
2023-03-14T01:51:56.316Z,94263.81
2023-03-14T01:52:58.606Z,94261.69
2023-03-14T01:54:09.823Z,94260.16
2023-03-14T01:55:16.875Z,94264.88
2023-03-14T01:56:19.523Z,94255.44
2023-03-14T01:57:25.878Z,94258.94
2023-03-14T01:58:32.030Z,94258.50
2023-03-14T01:59:36.499Z,94255.44
2023-03-14T02:00:38.430Z,94249.22
2023-03-14T02:01:45.273Z,94259.88
2023-03-14T02:02:49.172Z,94245.44
2023-03-14T02:03:56.842Z,94241.34
2023-03-14T02:05:01.866Z,94251.84
2023-03-14T02:06:09.868Z,94247.13
2023-03-14T02:07:20.814Z,94247.25
2023-03-14T02:08:50.476Z,94243.63
2023-03-14T02:10:00.955Z,94248.50
2023-03-14T02:11:08.319Z,94239.81
2023-03-14T02:12:30.475Z,94236.19
2023-03-14T02:14:03.156Z,94224.50
2023-03-14T02:15:36.205Z,94220.56
2023-03-14T02:16:44.986Z,94190.19
2023-03-14T02:18:18.779Z,94185.63
2023-03-14T02:20:16.445Z,94178.63
2023-03-14T02:21:26.695Z,94169.22
2023-03-14T02:22:29.985Z,94176.94
2023-03-14T02:23:48.947Z,94158.91
2023-03-14T02:25:03.958Z,94146.47
2023-03-14T02:26:12.689Z,94146.31
2023-03-14T02:27:18.422Z,94136.88
2023-03-14T02:28:22.547Z,94126.25
2023-03-14T02:29:31.257Z,94116.09
2023-03-14T02:30:36.104Z,94116.38
2023-03-14T02:31:39.212Z,94112.41
2023-03-14T02:32:46.758Z,94099.06
2023-03-14T02:33:50.833Z,94080.69
2023-03-14T02:34:57.869Z,94087.22
2023-03-14T02:36:06.997Z,94079.00
2023-03-14T02:37:10.503Z,94077.78
2023-03-14T02:38:19.383Z,94073.84
2023-03-14T02:39:28.938Z,94071.13
2023-03-14T02:40:32.729Z,94067.16
2023-03-14T02:41:34.765Z,94071.88
2023-03-14T02:42:42.561Z,94064.41
2023-03-14T02:43:44.563Z,94071.41
2023-03-14T02:44:55.801Z,94060.94
2023-03-14T02:45:57.876Z,94060.47
2023-03-14T02:47:01.660Z,94068.94
2023-03-14T02:48:07.681Z,94071.41
2023-03-14T02:49:15.615Z,94067.16
2023-03-14T02:50:21.617Z,94072.63
2023-03-14T02:51:27.999Z,94069.13
2023-03-14T02:52:30.422Z,94076.28
2023-03-14T02:53:36.114Z,94082.66
2023-03-14T02:54:42.669Z,94086.31
2023-03-14T02:55:47.781Z,94085.72
2023-03-14T02:56:51.433Z,94094.66
2023-03-14T02:57:56.336Z,94087.69
2023-03-14T02:58:59.652Z,94089.38
2023-03-14T03:00:10.427Z,94090.88
2023-03-14T03:01:15.042Z,94090.88
2023-03-14T03:02:17.324Z,94095.59
2023-03-14T03:03:20.513Z,94090.56
2023-03-14T03:04:24.044Z,94088.16
2023-03-14T03:05:26.915Z,94093.16
2023-03-14T03:06:28.705Z,94097.88
2023-03-14T03:07:31.557Z,94102.13
2023-03-14T03:08:34.334Z,94104.84
2023-03-14T03:09:37.255Z,94102.88
2023-03-14T03:10:39.195Z,94104.84
2023-03-14T03:11:43.301Z,94101.81
2023-03-14T03:12:50.620Z,94113.97
2023-03-14T03:13:54.962Z,94114.41
2023-03-14T03:14:57.367Z,94106.69
2023-03-14T03:16:00.475Z,94104.41
2023-03-14T03:17:02.725Z,94101.25
2023-03-14T03:18:06.017Z,94100.44
2023-03-14T03:19:07.810Z,94097.28
2023-03-14T03:20:12.011Z,94095.78
2023-03-14T03:21:14.472Z,94095.44
2023-03-14T03:22:19.869Z,94094.22
2023-03-14T03:23:21.828Z,94089.97
2023-03-14T03:24:24.648Z,94089.50
2023-03-14T03:25:27.312Z,94091.66
2023-03-14T03:26:30.305Z,94092.72
2023-03-14T03:27:32.845Z,94089.69
2023-03-14T03:28:35.694Z,94093.78
2023-03-14T03:29:39.488Z,94091.81
2023-03-14T03:30:44.191Z,94089.06
2023-03-14T03:31:46.710Z,94095.28
2023-03-14T03:32:50.302Z,94090.31
2023-03-14T03:33:52.226Z,94094.53
2023-03-14T03:34:55.437Z,94089.81
2023-03-14T03:35:57.340Z,94085.13
2023-03-14T03:37:05.563Z,94085.13
2023-03-14T03:38:12.899Z,94080.56
2023-03-14T03:39:16.280Z,94074.34
2023-03-14T03:40:18.285Z,94068.16
2023-03-14T03:41:21.339Z,94077.84
2023-03-14T03:42:25.258Z,94080.75
2023-03-14T03:43:28.221Z,94073.31
2023-03-14T03:44:30.232Z,94073.00
2023-03-14T03:45:34.565Z,94071.47
2023-03-14T03:46:36.558Z,94077.72
2023-03-14T03:47:39.454Z,94076.94
2023-03-14T03:48:41.882Z,94074.50
2023-03-14T03:49:44.803Z,94067.53
2023-03-14T03:50:46.999Z,94074.50
2023-03-14T03:51:53.062Z,94070.28
2023-03-14T03:52:54.987Z,94076.94
2023-03-14T03:53:58.412Z,94055.88
2023-03-14T03:55:06.047Z,94075.75
2023-03-14T03:56:10.716Z,94066.94
2023-03-14T03:57:14.982Z,94062.41
2023-03-14T03:58:17.807Z,94065.88
2023-03-14T03:59:19.892Z,94062.41
2023-03-14T04:00:23.087Z,94065.44
2023-03-14T04:01:26.298Z,94065.44
2023-03-14T04:02:33.933Z,94063.91
2023-03-14T04:03:36.764Z,94072.84
2023-03-14T04:04:40.211Z,94071.66
2023-03-14T04:05:42.889Z,94074.84
2023-03-14T04:06:46.927Z,94064.97
2023-03-14T04:07:48.911Z,94070.91
2023-03-14T04:08:56.822Z,94076.38
2023-03-14T04:10:17.281Z,94073.34
2023-03-14T04:11:34.054Z,94072.56
2023-03-14T04:12:40.381Z,94073.34
2023-03-14T04:13:49.981Z,94069.38
2023-03-14T04:14:51.853Z,94062.41
2023-03-14T04:15:58.540Z,94062.69
2023-03-14T04:17:04.129Z,94059.97
2023-03-14T04:18:07.186Z,94053.72
2023-03-14T04:19:09.161Z,94057.69
2023-03-14T04:20:13.683Z,94054.22
2023-03-14T04:21:16.876Z,94063.91
2023-03-14T04:22:25.766Z,94063.91
2023-03-14T04:23:28.681Z,94067.56
2023-03-14T04:24:32.302Z,94064.84
2023-03-14T04:25:34.194Z,94059.38
2023-03-14T04:26:40.632Z,94060.88
2023-03-14T04:27:44.785Z,94053.91
2023-03-14T04:28:55.178Z,94054.22
2023-03-14T04:29:58.104Z,94060.88
2023-03-14T04:31:21.240Z,94049.94
2023-03-14T04:32:26.387Z,94055.41
2023-03-14T04:33:28.716Z,94060.13
2023-03-14T04:34:34.352Z,94055.41
2023-03-14T04:35:36.378Z,94060.13
2023-03-14T04:36:44.552Z,94064.84
2023-03-14T04:37:52.844Z,94053.16
2023-03-14T04:38:57.084Z,94046.91
2023-03-14T04:40:00.670Z,94057.84
2023-03-14T04:41:07.867Z,94053.16
2023-03-14T04:42:11.668Z,94046.91
2023-03-14T04:43:15.273Z,94046.91
2023-03-14T04:44:30.516Z,94045.72
2023-03-14T04:45:33.981Z,94046.91
2023-03-14T04:46:38.181Z,94047.22
2023-03-14T04:47:45.226Z,94046.00
2023-03-14T04:48:50.585Z,94040.25
2023-03-14T04:49:55.299Z,94039.03
2023-03-14T04:50:59.581Z,94042.22
2023-03-14T04:52:05.981Z,94040.25
2023-03-14T04:53:11.011Z,94034.78
2023-03-14T04:54:14.564Z,94025.06
2023-03-14T04:55:16.552Z,94018.09
2023-03-14T04:56:19.505Z,94022.06
2023-03-14T04:57:21.469Z,94011.13
2023-03-14T04:58:26.034Z,94005.66
2023-03-14T04:59:29.375Z,94000.19
2023-03-14T05:00:39.714Z,93999.44
2023-03-14T05:01:57.929Z,94009.91
2023-03-14T05:03:25.182Z,94011.88
2023-03-14T05:04:48.156Z,94012.63
2023-03-14T05:06:10.169Z,94011.13
2023-03-14T05:07:31.485Z,94012.63
2023-03-14T05:08:45.922Z,94004.88
2023-03-14T05:09:51.751Z,94011.13
2023-03-14T05:11:01.880Z,94012.78
2023-03-14T05:12:16.183Z,94015.50
2023-03-14T05:13:40.389Z,94012.03
2023-03-14T05:15:00.439Z,94012.78
2023-03-14T05:16:22.155Z,94018.25
2023-03-14T05:17:55.316Z,94014.31
2023-03-14T05:19:17.010Z,94015.81
2023-03-14T05:20:38.762Z,94015.06
2023-03-14T05:22:04.607Z,94017.78
2023-03-14T05:23:30.767Z,94020.53
2023-03-14T05:24:45.345Z,94015.81
2023-03-14T05:26:07.592Z,94009.59
2023-03-14T05:27:35.656Z,94008.09
2023-03-14T05:28:48.713Z,93996.41
2023-03-14T05:30:01.755Z,94003.38
2023-03-14T05:31:30.686Z,93996.41
2023-03-14T05:32:51.177Z,94001.09
2023-03-14T05:34:06.135Z,93997.16
2023-03-14T05:35:28.947Z,93994.16
2023-03-14T05:36:49.166Z,93989.44
2023-03-14T05:38:14.522Z,93984.72
2023-03-14T05:39:26.412Z,93986.69
2023-03-14T05:40:29.271Z,93986.69
2023-03-14T05:42:01.500Z,93985.94
2023-03-14T05:43:33.612Z,93990.19
2023-03-14T05:44:55.770Z,93992.91
2023-03-14T05:46:23.229Z,93997.63
2023-03-14T05:47:45.429Z,93988.69
2023-03-14T05:48:58.602Z,93992.63
2023-03-14T05:50:19.604Z,93983.22
2023-03-14T05:51:37.830Z,93979.72
2023-03-14T05:53:19.356Z,93975.94
2023-03-14T05:54:45.330Z,93980.19
2023-03-14T05:56:14.322Z,93976.69
2023-03-14T05:57:34.953Z,93970.47
2023-03-14T05:59:09.761Z,93964.56
2023-03-14T06:00:20.550Z,93964.56
2023-03-14T06:01:38.028Z,93963.81
2023-03-14T06:02:46.379Z,93957.59
2023-03-14T06:03:58.303Z,93957.59
2023-03-14T06:05:01.241Z,93961.06
2023-03-14T06:06:04.340Z,93958.03
2023-03-14T06:07:08.544Z,93956.06
2023-03-14T06:08:10.467Z,93963.94
2023-03-14T06:09:13.416Z,93959.28
2023-03-14T06:10:18.267Z,93961.22
2023-03-14T06:11:21.394Z,93955.75
2023-03-14T06:12:23.335Z,93965.94
2023-03-14T06:13:26.881Z,93962.00
2023-03-14T06:14:28.777Z,93970.19
2023-03-14T06:15:33.886Z,93959.28
2023-03-14T06:16:36.146Z,93972.44
2023-03-14T06:17:39.859Z,93963.19
2023-03-14T06:18:47.494Z,93957.75
2023-03-14T06:19:51.122Z,93961.69
2023-03-14T06:20:54.930Z,93967.91
2023-03-14T06:22:01.628Z,93968.66
2023-03-14T06:23:06.111Z,93963.19
2023-03-14T06:24:08.046Z,93963.94
2023-03-14T06:25:17.386Z,93956.53
2023-03-14T06:26:24.060Z,93955.00
2023-03-14T06:27:25.910Z,93957.00
2023-03-14T06:28:31.590Z,93953.50
2023-03-14T06:29:36.175Z,93944.09
2023-03-14T06:30:39.730Z,93943.03
2023-03-14T06:31:45.316Z,93939.84
2023-03-14T06:32:51.753Z,93944.53
2023-03-14T06:33:56.157Z,93946.50
2023-03-14T06:35:03.352Z,93932.88
2023-03-14T06:36:11.102Z,93935.59
2023-03-14T06:37:18.736Z,93932.88
2023-03-14T06:38:24.742Z,93921.19
2023-03-14T06:39:32.310Z,93927.69
2023-03-14T06:40:44.915Z,93923.47
2023-03-14T06:41:50.500Z,93933.63
2023-03-14T06:42:54.965Z,93921.94
2023-03-14T06:43:58.496Z,93924.22
2023-03-14T06:45:01.414Z,93924.22
2023-03-14T06:46:03.455Z,93929.69
2023-03-14T06:47:08.528Z,93934.38
2023-03-14T06:48:14.069Z,93934.38
2023-03-14T06:49:23.873Z,93936.34
2023-03-14T06:50:29.596Z,93937.13
2023-03-14T06:51:34.969Z,93943.78
2023-03-14T06:52:42.187Z,93939.56
2023-03-14T06:53:45.670Z,93943.78
2023-03-14T06:54:51.037Z,93940.31
2023-03-14T06:55:56.496Z,93943.78
2023-03-14T06:56:59.772Z,93953.22
2023-03-14T06:58:01.752Z,93957.91
2023-03-14T06:59:05.093Z,93958.66
2023-03-14T07:00:09.954Z,93960.16
2023-03-14T07:01:22.399Z,93965.63
2023-03-14T07:02:39.812Z,93969.59
2023-03-14T07:03:51.184Z,93971.09
2023-03-14T07:04:53.202Z,93967.63
2023-03-14T07:05:56.097Z,93964.13
2023-03-14T07:06:59.070Z,93975.06
2023-03-14T07:08:01.026Z,93975.06
2023-03-14T07:09:05.488Z,93973.53
2023-03-14T07:10:11.332Z,93975.06
2023-03-14T07:11:13.298Z,93968.06
2023-03-14T07:12:16.244Z,93974.31
2023-03-14T07:13:18.301Z,93972.31
2023-03-14T07:14:41.444Z,93973.53
2023-03-14T07:15:43.503Z,93981.72
2023-03-14T07:16:47.042Z,93973.53
2023-03-14T07:17:49.459Z,93982.50
2023-03-14T07:18:54.373Z,93973.53
2023-03-14T07:19:56.250Z,93978.22
2023-03-14T07:21:00.632Z,93973.53
2023-03-14T07:22:03.636Z,93965.34
2023-03-14T07:23:05.820Z,93968.38
2023-03-14T07:24:16.139Z,93967.31
2023-03-14T07:25:18.348Z,93970.03
2023-03-14T07:26:21.249Z,93968.06
2023-03-14T07:27:26.320Z,93965.34
2023-03-14T07:28:29.176Z,93959.13
2023-03-14T07:29:40.656Z,93961.84
2023-03-14T07:30:44.006Z,93966.56
2023-03-14T07:31:52.564Z,93968.06
2023-03-14T07:32:56.016Z,93961.84
2023-03-14T07:34:01.121Z,93961.09
2023-03-14T07:35:08.739Z,93964.59
2023-03-14T07:36:14.499Z,93962.59
2023-03-14T07:37:20.128Z,93958.66
2023-03-14T07:38:23.357Z,93965.34
2023-03-14T07:39:46.102Z,93957.13
2023-03-14T07:40:59.655Z,93967.31
2023-03-14T07:42:03.175Z,93952.91
2023-03-14T07:43:15.046Z,93949.44
2023-03-14T07:44:22.799Z,93948.66
2023-03-14T07:45:28.331Z,93952.16
2023-03-14T07:46:31.957Z,93955.63
2023-03-14T07:47:33.948Z,93946.69
2023-03-14T07:48:36.962Z,93948.19
2023-03-14T07:49:40.114Z,93951.69
2023-03-14T07:50:42.125Z,93946.22
2023-03-14T07:51:45.159Z,93948.94
2023-03-14T07:52:48.014Z,93957.91
2023-03-14T07:53:49.950Z,93955.94
2023-03-14T07:54:54.179Z,93951.22
2023-03-14T07:55:56.250Z,93953.22
2023-03-14T07:56:59.848Z,93947.75
2023-03-14T07:58:02.455Z,93954.72
2023-03-14T07:59:05.590Z,93947.75
2023-03-14T08:00:10.281Z,93949.25
2023-03-14T08:01:15.487Z,93950.00
2023-03-14T08:02:19.142Z,93947.75
2023-03-14T08:03:23.496Z,93954.72
2023-03-14T08:04:26.375Z,93955.47
2023-03-14T08:05:29.706Z,93963.19
2023-03-14T08:06:32.541Z,93950.78
2023-03-14T08:07:34.522Z,93958.97
2023-03-14T08:08:37.529Z,93961.69
2023-03-14T08:09:39.493Z,93972.63
2023-03-14T08:10:43.930Z,93963.66
2023-03-14T08:11:47.153Z,93961.69
2023-03-14T08:12:49.561Z,93962.44
2023-03-14T08:13:52.966Z,93967.16
2023-03-14T08:14:54.994Z,93958.19
2023-03-14T08:15:57.937Z,93961.69
2023-03-14T08:17:00.840Z,93967.91
2023-03-14T08:18:02.953Z,93974.13
2023-03-14T08:19:05.873Z,93972.16
2023-03-14T08:20:12.505Z,93959.72
2023-03-14T08:21:31.587Z,93966.22
2023-03-14T08:22:34.582Z,93963.19
2023-03-14T08:23:36.640Z,93958.50
2023-03-14T08:24:39.556Z,93963.19
2023-03-14T08:25:42.935Z,93960.47
2023-03-14T08:26:45.972Z,93972.94
2023-03-14T08:27:48.818Z,93969.41
2023-03-14T08:28:51.686Z,93978.66
2023-03-14T08:29:53.764Z,93977.91
2023-03-14T08:30:57.271Z,93973.19
2023-03-14T08:32:00.226Z,93980.19
2023-03-14T08:33:03.457Z,93977.00
2023-03-14T08:34:07.018Z,93973.97
2023-03-14T08:35:11.224Z,93978.66
2023-03-14T08:36:13.285Z,93973.97
2023-03-14T08:37:25.663Z,93973.97
2023-03-14T08:38:29.637Z,93969.25
2023-03-14T08:39:34.601Z,93971.53
2023-03-14T08:40:37.511Z,93972.28
2023-03-14T08:41:43.791Z,93972.28
2023-03-14T08:42:47.616Z,93980.78
2023-03-14T08:43:49.543Z,93983.50
2023-03-14T08:44:53.292Z,93969.09
2023-03-14T08:45:59.296Z,93978.06
2023-03-14T08:47:02.471Z,93974.53
2023-03-14T08:48:06.065Z,93984.25
2023-03-14T08:49:08.951Z,93983.03
2023-03-14T08:50:16.214Z,93992.47
2023-03-14T08:51:19.820Z,93992.16
2023-03-14T08:52:21.787Z,93985.19
2023-03-14T08:53:24.968Z,93984.91
2023-03-14T08:54:26.856Z,93991.88
2023-03-14T08:55:29.936Z,93985.66
2023-03-14T08:56:32.019Z,93987.94
2023-03-14T08:57:37.296Z,93988.69
2023-03-14T08:58:40.407Z,93995.66
2023-03-14T08:59:43.276Z,93995.66
2023-03-14T09:00:46.266Z,93996.13
2023-03-14T09:01:49.170Z,93994.91
2023-03-14T09:02:52.698Z,93998.38
2023-03-14T09:03:54.606Z,93989.44
2023-03-14T09:04:57.555Z,93995.66
2023-03-14T09:06:04.442Z,93994.16
2023-03-14T09:07:07.771Z,93989.44
2023-03-14T09:08:10.604Z,93989.44
2023-03-14T09:09:14.515Z,93989.44
2023-03-14T09:10:16.988Z,93993.38
2023-03-14T09:11:19.888Z,93993.38
2023-03-14T09:12:22.880Z,93994.91
2023-03-14T09:13:27.212Z,93984.72
2023-03-14T09:14:30.213Z,93995.66
2023-03-14T09:15:33.159Z,93985.94
2023-03-14T09:16:35.333Z,93996.41
2023-03-14T09:17:39.346Z,93995.66
2023-03-14T09:18:41.293Z,93991.72
2023-03-14T09:19:44.252Z,94000.19
2023-03-14T09:20:46.149Z,93993.22
2023-03-14T09:21:49.720Z,93992.00
2023-03-14T09:22:51.656Z,93990.03
2023-03-14T09:23:54.606Z,93985.78
2023-03-14T09:24:56.540Z,93994.75
2023-03-14T09:26:00.065Z,93982.59
2023-03-14T09:27:02.089Z,93987.31
2023-03-14T09:28:05.123Z,93983.81
2023-03-14T09:29:08.727Z,93980.31
2023-03-14T09:30:12.956Z,93983.81
2023-03-14T09:31:15.008Z,93979.09
2023-03-14T09:32:17.899Z,93977.13
2023-03-14T09:33:19.939Z,93974.41
2023-03-14T09:34:22.852Z,93971.66
2023-03-14T09:35:25.888Z,93970.44
2023-03-14T09:36:27.970Z,93971.22
2023-03-14T09:37:30.954Z,93973.47
2023-03-14T09:38:34.002Z,93978.94
2023-03-14T09:39:37.026Z,93973.47
2023-03-14T09:40:39.754Z,93968.78
2023-03-14T09:41:46.613Z,93970.72
2023-03-14T09:42:49.754Z,93962.53
2023-03-14T09:44:01.005Z,93975.00
2023-03-14T09:45:09.074Z,93973.75
2023-03-14T09:46:12.717Z,93971.03
2023-03-14T09:47:17.629Z,93971.03
2023-03-14T09:48:23.212Z,93971.03
2023-03-14T09:49:29.960Z,93969.81
2023-03-14T09:50:40.548Z,93979.53
2023-03-14T09:51:44.667Z,93966.31
2023-03-14T09:52:53.166Z,93963.13
2023-03-14T09:53:56.050Z,93964.66
2023-03-14T09:55:00.916Z,93963.13
2023-03-14T09:56:04.113Z,93963.13
2023-03-14T09:57:13.069Z,93964.66
2023-03-14T09:58:20.960Z,93959.94
2023-03-14T09:59:23.311Z,93957.97
2023-03-14T10:00:31.419Z,93956.72
2023-03-14T10:01:36.557Z,93956.72
2023-03-14T10:02:39.237Z,93959.75
2023-03-14T10:03:44.336Z,93952.34
2023-03-14T10:04:47.148Z,93963.53
2023-03-14T10:05:50.110Z,93956.13
2023-03-14T10:06:53.525Z,93959.16
2023-03-14T10:07:55.739Z,93960.94
2023-03-14T10:08:59.141Z,93961.25
2023-03-14T10:10:01.437Z,93968.50
2023-03-14T10:11:04.323Z,93964.88
2023-03-14T10:12:10.879Z,93965.16
2023-03-14T10:13:17.817Z,93961.22
2023-03-14T10:14:31.876Z,93962.72
2023-03-14T10:15:35.995Z,93963.03
2023-03-14T10:16:43.301Z,93953.88
2023-03-14T10:17:49.993Z,93962.09
2023-03-14T10:18:51.884Z,93950.72
2023-03-14T10:19:57.449Z,93962.38
2023-03-14T10:21:09.238Z,93960.69
2023-03-14T10:22:15.503Z,93951.28
2023-03-14T10:23:26.768Z,93954.31
2023-03-14T10:24:32.212Z,93959.34
2023-03-14T10:25:37.341Z,93947.16
2023-03-14T10:26:39.314Z,93943.97
2023-03-14T10:27:42.421Z,93948.97
2023-03-14T10:28:46.223Z,93941.53
2023-03-14T10:29:57.064Z,93947.75
2023-03-14T10:31:02.130Z,93947.00
2023-03-14T10:32:08.646Z,93945.47
2023-03-14T10:33:12.101Z,93947.00
2023-03-14T10:34:22.389Z,93953.97
2023-03-14T10:35:26.048Z,93945.31
2023-03-14T10:36:29.458Z,93946.81
2023-03-14T10:37:32.353Z,93942.88
2023-03-14T10:38:37.538Z,93950.59
2023-03-14T10:39:47.236Z,93940.41
2023-03-14T10:40:54.419Z,93946.16
2023-03-14T10:42:04.386Z,93950.72
2023-03-14T10:43:09.510Z,93940.09
2023-03-14T10:44:14.873Z,93946.88
2023-03-14T10:45:30.584Z,93956.13
2023-03-14T10:46:35.273Z,93941.97
2023-03-14T10:47:56.790Z,93950.66
2023-03-14T10:48:59.744Z,93932.72
2023-03-14T10:50:25.898Z,93941.59
2023-03-14T10:51:30.437Z,93954.81
2023-03-14T10:52:57.736Z,93943.84
2023-03-14T10:54:03.599Z,93953.28
2023-03-14T10:55:12.935Z,93962.22
2023-03-14T10:56:17.332Z,93958.00
2023-03-14T10:57:21.173Z,93966.50
2023-03-14T10:58:26.678Z,93950.06
2023-03-14T10:59:34.935Z,93951.28
2023-03-14T11:00:36.942Z,93957.25
2023-03-14T11:01:46.643Z,93952.53
2023-03-14T11:03:06.960Z,93953.28
2023-03-14T11:04:23.372Z,93964.97
2023-03-14T11:05:32.837Z,93944.78
2023-03-14T11:06:43.643Z,93948.75
2023-03-14T11:07:45.963Z,93954.97
2023-03-14T11:08:54.623Z,93950.59
2023-03-14T11:10:02.061Z,93948.44
2023-03-14T11:11:15.872Z,93937.06
2023-03-14T11:12:35.786Z,93936.13
2023-03-14T11:13:45.434Z,93943.38
2023-03-14T11:14:55.092Z,93943.97
2023-03-14T11:16:08.627Z,93921.63
2023-03-14T11:17:21.151Z,93932.38
2023-03-14T11:19:05.727Z,93931.47
2023-03-14T11:20:26.476Z,93936.94
2023-03-14T11:21:35.020Z,93941.16
2023-03-14T11:22:42.921Z,93938.44
2023-03-14T11:23:57.269Z,93938.44
2023-03-14T11:25:20.251Z,93932.00
2023-03-14T11:26:31.290Z,93937.03
2023-03-14T11:27:43.732Z,93930.34
2023-03-14T11:28:51.572Z,93934.75
2023-03-14T11:30:01.587Z,93932.00
2023-03-14T11:31:14.817Z,93928.06
2023-03-14T11:32:44.040Z,93942.50
2023-03-14T11:33:53.896Z,93932.00
2023-03-14T11:34:56.358Z,93929.56
2023-03-14T11:36:05.580Z,93934.28
2023-03-14T11:37:14.342Z,93929.56
2023-03-14T11:38:30.898Z,93930.34
2023-03-14T11:39:39.996Z,93919.84
2023-03-14T11:40:44.517Z,93932.00
2023-03-14T11:41:48.961Z,93939.00
2023-03-14T11:43:00.642Z,93936.28
2023-03-14T11:44:07.145Z,93939.00
2023-03-14T11:45:17.973Z,93933.53
2023-03-14T11:46:25.377Z,93927.31
2023-03-14T11:47:33.454Z,93922.59
2023-03-14T11:48:41.904Z,93925.63
2023-03-14T11:49:50.373Z,93926.84
2023-03-14T11:50:57.238Z,93913.16
2023-03-14T11:52:04.017Z,93923.19
2023-03-14T11:53:12.154Z,93933.16
2023-03-14T11:54:20.609Z,93922.53
2023-03-14T11:55:27.635Z,93916.59
2023-03-14T11:56:35.760Z,93933.75
2023-03-14T11:57:39.059Z,93939.97
2023-03-14T11:58:47.999Z,93934.97
2023-03-14T11:59:58.215Z,93927.69
2023-03-14T12:01:08.216Z,93929.97
2023-03-14T12:02:19.800Z,93926.47
2023-03-14T12:03:34.964Z,93931.94
2023-03-14T12:04:51.930Z,93928.16
2023-03-14T12:06:04.412Z,93924.69
2023-03-14T12:07:15.521Z,93941.09
2023-03-14T12:08:39.754Z,93932.31
2023-03-14T12:09:42.960Z,93934.28
2023-03-14T12:10:49.683Z,93928.06
2023-03-14T12:11:57.626Z,93935.03
2023-03-14T12:13:00.200Z,93924.09
2023-03-14T12:14:03.477Z,93936.56
2023-03-14T12:15:07.984Z,93936.56
2023-03-14T12:16:27.780Z,93943.53
2023-03-14T12:17:38.513Z,93934.88
2023-03-14T12:18:43.580Z,93934.88
2023-03-14T12:19:47.915Z,93936.38
2023-03-14T12:20:57.024Z,93941.09
2023-03-14T12:22:21.467Z,93945.06
2023-03-14T12:23:24.983Z,93939.88
2023-03-14T12:24:32.453Z,93946.56
2023-03-14T12:25:36.565Z,93947.78
2023-03-14T12:26:49.611Z,93941.09
2023-03-14T12:28:21.056Z,93944.41
2023-03-14T12:29:24.979Z,93941.66
2023-03-14T12:30:30.521Z,93955.06
2023-03-14T12:31:43.656Z,93940.44
2023-03-14T12:33:28.483Z,93957.88
2023-03-14T12:34:34.312Z,93953.19
2023-03-14T12:35:37.261Z,93946.50
2023-03-14T12:36:56.657Z,93946.50
2023-03-14T12:38:02.407Z,93946.50
2023-03-14T12:39:14.217Z,93945.91
2023-03-14T12:40:23.209Z,93941.66
2023-03-14T12:41:30.555Z,93942.63
2023-03-14T12:42:45.857Z,93947.16
2023-03-14T12:43:49.015Z,93938.66
2023-03-14T12:44:52.426Z,93943.38
2023-03-14T12:46:20.112Z,93953.56
2023-03-14T12:47:54.712Z,93944.13
2023-03-14T12:49:06.452Z,93942.63
2023-03-14T12:50:16.678Z,93950.03
2023-03-14T12:51:22.136Z,93952.78
2023-03-14T12:52:36.204Z,93959.94
2023-03-14T12:54:11.759Z,93953.13
2023-03-14T12:55:21.972Z,93939.00
2023-03-14T12:56:28.812Z,93946.91
2023-03-14T12:57:38.611Z,93963.78
2023-03-14T12:58:48.321Z,93955.59
2023-03-14T12:59:54.071Z,93954.84
2023-03-14T13:00:57.501Z,93945.13
2023-03-14T13:02:04.717Z,93969.44
2023-03-14T13:03:18.788Z,93966.72
2023-03-14T13:04:38.808Z,93961.84
2023-03-14T13:05:55.455Z,93956.81
2023-03-14T13:07:00.962Z,93962.28
2023-03-14T13:08:08.125Z,93965.78